Terminal Aerodrome Forecast
Issued by NWS

Home | Current Version | Previous Version | Text Only | Print | Product List | Glossary On
Versions: 1 2 3 4 5 6 7 8 9 10 11 12 13 14
000
FTUS45 KTFX 011700
TAFLWT
TAF
KLWT 011737Z 0118/0218 15005KT P6SM SCT200
     FM020200 21010KT P6SM VCSH SCT025 OVC040 PROB30 0209/0215 2SM
      -SN BR OVC015=

USA.gov is the U.S. government's official web portal to all federal, state and local government web resources and services.